createdAt,value
2018-08-19T00:01:31.657Z,29.60
2018-08-19T00:04:00.574Z,32.63
2018-08-19T00:06:29.551Z,32.90
2018-08-19T00:09:02.735Z,31.93
2018-08-19T00:11:31.721Z,27.60
2018-08-19T00:14:00.662Z,28.57
2018-08-19T00:16:29.616Z,28.60
2018-08-19T00:18:58.576Z,31.33
2018-08-19T00:21:27.549Z,35.43
2018-08-19T00:23:56.544Z,30.93
2018-08-19T00:26:25.464Z,28.87
2018-08-19T00:28:54.484Z,28.93
2018-08-19T00:31:23.509Z,32.73
2018-08-19T00:33:52.486Z,30.53
2018-08-19T00:36:28.923Z,35.40
2018-08-19T00:38:57.912Z,30.67
2018-08-19T00:41:26.922Z,33.77
2018-08-19T00:43:55.802Z,28.13
2018-08-19T00:46:28.580Z,28.43
2018-08-19T00:48:58.121Z,26.87
2018-08-19T00:51:27.192Z,26.53
2018-08-19T00:53:56.528Z,31.50
2018-08-19T00:56:25.544Z,28.13
2018-08-19T00:58:54.723Z,26.10
2018-08-19T01:01:35.044Z,31.00
2018-08-19T01:04:06.566Z,23.23
2018-08-19T01:06:40.993Z,29.07
2018-08-19T01:09:10.735Z,30.83
2018-08-19T01:11:41.884Z,37.00
2018-08-19T01:14:14.667Z,23.23
2018-08-19T01:16:44.662Z,32.10
2018-08-19T01:19:14.676Z,26.47
2018-08-19T01:21:43.592Z,28.20
2018-08-19T01:24:12.637Z,29.87
2018-08-19T01:26:42.435Z,31.30
2018-08-19T01:29:12.038Z,26.83
2018-08-19T01:31:41.024Z,43.27
2018-08-19T01:34:11.136Z,26.20
2018-08-19T01:36:40.076Z,29.40
2018-08-19T01:39:10.713Z,27.90
2018-08-19T01:41:40.439Z,26.40
2018-08-19T01:44:10.731Z,28.37
2018-08-19T01:46:44.973Z,33.13
2018-08-19T01:49:13.955Z,29.73
2018-08-19T01:51:43.968Z,29.27
2018-08-19T01:54:18.171Z,34.43
2018-08-19T01:56:50.603Z,30.87
2018-08-19T01:59:19.537Z,26.90
2018-08-19T02:01:50.472Z,26.63
2018-08-19T02:04:19.945Z,27.83
2018-08-19T02:06:48.884Z,28.03
2018-08-19T02:09:18.748Z,28.33
2018-08-19T02:11:49.443Z,29.80
2018-08-19T02:14:19.128Z,31.43
2018-08-19T02:16:48.892Z,23.47
2018-08-19T02:19:17.855Z,23.13
2018-08-19T02:21:47.553Z,27.83
2018-08-19T02:24:16.869Z,24.90
2018-08-19T02:26:45.776Z,28.07
2018-08-19T02:29:30.540Z,31.47
2018-08-19T02:32:01.491Z,26.87
2018-08-19T02:34:31.590Z,29.63
2018-08-19T02:37:05.783Z,28.10
2018-08-19T02:39:37.284Z,27.20
2018-08-19T02:42:22.173Z,24.93
2018-08-19T02:44:52.700Z,25.57
2018-08-19T02:47:21.729Z,29.47
2018-08-19T02:49:50.824Z,35.80
2018-08-19T02:52:36.143Z,25.47
2018-08-19T02:55:06.780Z,29.50
2018-08-19T02:57:37.925Z,33.03
2018-08-19T03:00:07.932Z,28.40
2018-08-19T03:02:38.136Z,24.33
2018-08-19T03:05:10.367Z,24.17
2018-08-19T03:07:39.283Z,32.80
2018-08-19T03:10:13.995Z,22.70
2018-08-19T03:12:43.359Z,22.70
2018-08-19T03:15:13.338Z,26.83
2018-08-19T03:17:42.860Z,29.23
2018-08-19T03:20:13.072Z,22.83
2018-08-19T03:22:42.324Z,25.80
2018-08-19T03:25:11.590Z,25.57
2018-08-19T03:27:40.543Z,27.97
2018-08-19T03:30:12.630Z,33.30
2018-08-19T03:33:13.515Z,36.20
2018-08-19T03:35:42.464Z,31.63
2018-08-19T03:38:13.253Z,33.60
2018-08-19T03:40:42.182Z,29.90
2018-08-19T03:43:11.733Z,24.43
2018-08-19T03:45:40.682Z,36.60
2018-08-19T03:48:09.624Z,31.90
2018-08-19T03:50:38.552Z,36.67
2018-08-19T03:53:07.492Z,35.17
2018-08-19T03:55:38.534Z,29.53
2018-08-19T03:58:08.675Z,28.07
2018-08-19T04:00:39.057Z,33.40
2018-08-19T04:03:27.517Z,29.67
2018-08-19T04:05:57.652Z,29.37
2018-08-19T04:08:31.496Z,36.90
2018-08-19T04:11:00.588Z,30.53
2018-08-19T04:13:39.664Z,40.50
2018-08-19T04:16:09.581Z,39.53
2018-08-19T04:18:39.830Z,30.07
2018-08-19T04:21:10.039Z,31.63
2018-08-19T04:23:41.273Z,27.90
2018-08-19T04:26:10.195Z,34.33
2018-08-19T04:28:40.136Z,32.50
2018-08-19T04:31:24.553Z,30.50
2018-08-19T04:33:54.304Z,31.83
2018-08-19T04:36:24.448Z,37.87
2018-08-19T04:38:53.363Z,24.30
2018-08-19T04:41:22.360Z,45.83
2018-08-19T04:43:51.481Z,33.07
2018-08-19T04:46:20.428Z,27.53
2018-08-19T04:48:49.467Z,24.17
2018-08-19T04:51:18.420Z,36.03
2018-08-19T04:53:47.371Z,27.97
2018-08-19T04:56:16.327Z,33.10
2018-08-19T04:58:45.332Z,37.40
2018-08-19T05:01:14.412Z,34.33
2018-08-19T05:03:44.189Z,25.30
2018-08-19T05:06:13.224Z,28.43
2018-08-19T05:08:42.252Z,28.90
2018-08-19T05:11:11.191Z,34.90
2018-08-19T05:13:40.134Z,31.73
2018-08-19T05:16:09.130Z,28.50
2018-08-19T05:18:38.102Z,29.43
2018-08-19T05:21:12.340Z,26.97
2018-08-19T05:23:41.272Z,28.10
2018-08-19T05:26:12.364Z,29.47
2018-08-19T05:28:41.348Z,30.50
2018-08-19T05:31:10.324Z,32.07
2018-08-19T05:33:41.971Z,31.40
2018-08-19T05:36:10.984Z,33.43
2018-08-19T05:38:39.923Z,33.67
2018-08-19T05:41:10.131Z,29.27
2018-08-19T05:43:39.188Z,30.90
2018-08-19T05:46:08.123Z,27.57
2018-08-19T05:48:37.071Z,31.80
2018-08-19T05:51:06.040Z,23.93
2018-08-19T05:53:35.255Z,28.07
2018-08-19T05:56:04.184Z,19.63
2018-08-19T05:58:33.160Z,25.80
2018-08-19T06:01:02.160Z,21.60
2018-08-19T06:03:31.133Z,25.23
2018-08-19T06:06:00.097Z,21.00
2018-08-19T06:08:29.106Z,24.37
2018-08-19T06:10:58.252Z,29.73
2018-08-19T06:13:28.265Z,23.00
2018-08-19T06:15:57.230Z,24.93
2018-08-19T06:18:26.208Z,21.00
2018-08-19T06:20:55.203Z,22.20
2018-08-19T06:23:24.185Z,22.20
2018-08-19T06:25:53.124Z,21.67
2018-08-19T06:28:22.056Z,20.47
2018-08-19T06:30:51.088Z,19.20
2018-08-19T06:33:20.065Z,23.00
2018-08-19T06:35:49.088Z,27.03
2018-08-19T06:38:18.004Z,19.63
2018-08-19T06:40:46.962Z,17.47
2018-08-19T06:43:15.960Z,17.17
2018-08-19T06:45:44.911Z,18.27
2018-08-19T06:48:13.926Z,18.83
2018-08-19T06:50:42.938Z,21.50
2018-08-19T06:53:17.324Z,20.20
2018-08-19T06:55:46.371Z,17.30
2018-08-19T06:58:15.443Z,18.27
2018-08-19T07:00:44.371Z,16.03
2018-08-19T07:03:13.447Z,15.90
2018-08-19T07:05:42.288Z,18.63
2018-08-19T07:08:11.345Z,25.33
2018-08-19T07:10:41.535Z,17.80
2018-08-19T07:13:13.349Z,18.60
2018-08-19T07:15:43.423Z,20.57
2018-08-19T07:18:14.810Z,18.60
2018-08-19T07:20:44.475Z,18.07
2018-08-19T07:23:13.640Z,14.33
2018-08-19T07:25:43.912Z,17.87
2018-08-19T07:28:14.085Z,17.37
2018-08-19T07:30:43.382Z,18.63
2018-08-19T07:33:12.909Z,11.80
2018-08-19T07:35:41.880Z,22.90
2018-08-19T07:38:10.897Z,19.40
2018-08-19T07:40:39.836Z,16.67
2018-08-19T07:43:08.869Z,15.53
2018-08-19T07:45:37.895Z,18.20
2018-08-19T07:48:07.072Z,16.93
2018-08-19T07:50:36.079Z,15.77
2018-08-19T07:53:05.123Z,14.47
2018-08-19T07:55:34.166Z,17.23
2018-08-19T07:58:03.109Z,15.47
2018-08-19T08:00:37.524Z,13.13
2018-08-19T08:03:07.633Z,16.67
2018-08-19T08:05:41.861Z,13.30
2018-08-19T08:08:10.837Z,15.80
2018-08-19T08:10:39.900Z,14.20
2018-08-19T08:13:09.975Z,11.70
2018-08-19T08:15:44.377Z,13.60
2018-08-19T08:18:13.880Z,21.17
2018-08-19T08:20:42.984Z,13.43
2018-08-19T08:23:18.166Z,11.90
2018-08-19T08:25:47.219Z,10.30
2018-08-19T08:28:16.179Z,13.27
2018-08-19T08:30:45.219Z,15.77
2018-08-19T08:33:14.185Z,10.33
2018-08-19T08:35:48.579Z,9.73
2018-08-19T08:38:17.550Z,16.90
2018-08-19T08:40:46.676Z,13.90
2018-08-19T08:43:15.479Z,14.00
2018-08-19T08:45:44.568Z,16.37
2018-08-19T08:48:13.548Z,17.57
2018-08-19T08:50:42.527Z,19.93
2018-08-19T08:53:11.629Z,16.33
2018-08-19T08:55:40.652Z,12.43
2018-08-19T08:58:09.641Z,12.77
2018-08-19T09:00:38.569Z,15.07
2018-08-19T09:03:07.811Z,20.27
2018-08-19T09:05:36.713Z,10.90
2018-08-19T09:08:05.671Z,18.67
2018-08-19T09:10:34.665Z,12.33
2018-08-19T09:13:03.704Z,13.57
2018-08-19T09:15:32.728Z,13.00
2018-08-19T09:18:01.738Z,16.63
2018-08-19T09:20:30.680Z,14.13
2018-08-19T09:22:59.662Z,14.30
2018-08-19T09:25:28.634Z,16.73
2018-08-19T09:27:57.640Z,15.23
2018-08-19T09:30:35.464Z,21.13
2018-08-19T09:33:04.602Z,20.60
2018-08-19T09:35:34.784Z,22.70
2018-08-19T09:38:10.144Z,15.40
2018-08-19T09:40:39.134Z,16.83
2018-08-19T09:43:08.895Z,13.40
2018-08-19T09:45:38.156Z,14.00
2018-08-19T09:48:07.708Z,9.90
2018-08-19T09:50:37.552Z,21.10
2018-08-19T09:53:06.520Z,14.83
2018-08-19T09:55:41.296Z,13.20
2018-08-19T09:58:12.130Z,18.87
2018-08-19T10:00:46.644Z,14.10
2018-08-19T10:03:15.715Z,19.40
2018-08-19T10:05:44.649Z,18.10
2018-08-19T10:08:13.557Z,13.80
2018-08-19T10:10:42.468Z,14.80
2018-08-19T10:13:11.472Z,17.70
2018-08-19T10:15:41.025Z,12.97
2018-08-19T10:18:10.003Z,15.97
2018-08-19T10:20:38.987Z,20.60
2018-08-19T10:23:08.263Z,18.23
2018-08-19T10:25:37.248Z,19.00
2018-08-19T10:28:06.399Z,12.87
2018-08-19T10:30:38.139Z,18.13
2018-08-19T10:33:09.025Z,12.57
2018-08-19T10:35:38.094Z,15.53
2018-08-19T10:38:07.000Z,15.73
2018-08-19T10:40:35.946Z,15.43
2018-08-19T10:43:07.130Z,16.73
2018-08-19T10:45:39.855Z,16.90
2018-08-19T10:48:11.077Z,13.70
2018-08-19T10:50:40.151Z,16.93
2018-08-19T10:53:15.553Z,19.50
2018-08-19T10:55:45.269Z,20.43
2018-08-19T10:58:14.288Z,16.80
2018-08-19T11:00:43.236Z,12.00
2018-08-19T11:03:16.469Z,13.33
2018-08-19T11:05:46.412Z,18.93
2018-08-19T11:08:15.476Z,20.53
2018-08-19T11:10:44.469Z,14.93
2018-08-19T11:13:17.028Z,17.00
2018-08-19T11:16:01.042Z,22.23
2018-08-19T11:18:41.232Z,13.30
2018-08-19T11:21:14.865Z,14.93
2018-08-19T11:23:46.016Z,14.93
2018-08-19T11:26:15.146Z,14.80
2018-08-19T11:28:46.057Z,17.97
2018-08-19T11:31:21.657Z,20.23
2018-08-19T11:33:51.457Z,24.53
2018-08-19T11:36:21.874Z,17.43
2018-08-19T11:38:53.097Z,20.50
2018-08-19T11:41:22.027Z,20.37
2018-08-19T11:43:51.320Z,17.03
2018-08-19T11:46:20.475Z,21.03
2018-08-19T11:48:54.815Z,17.00
2018-08-19T11:51:39.314Z,24.40
2018-08-19T11:54:09.139Z,14.23
2018-08-19T11:56:38.112Z,17.73
2018-08-19T11:59:07.384Z,19.07
2018-08-19T12:01:36.400Z,16.23
2018-08-19T12:04:09.408Z,11.97
2018-08-19T12:06:38.364Z,15.60
2018-08-19T12:09:08.947Z,15.70
2018-08-19T12:11:39.243Z,14.10
2018-08-19T12:14:09.996Z,17.13
2018-08-19T12:16:46.232Z,15.63
2018-08-19T12:19:19.247Z,17.50
2018-08-19T12:21:54.463Z,14.93
2018-08-19T12:24:33.789Z,13.67
2018-08-19T12:27:03.870Z,18.27
2018-08-19T12:29:34.045Z,14.97
2018-08-19T12:32:09.714Z,12.40
2018-08-19T12:34:40.020Z,17.63
2018-08-19T12:37:11.129Z,15.17
2018-08-19T12:39:40.606Z,16.73
2018-08-19T12:42:10.580Z,13.47
2018-08-19T12:44:39.942Z,16.30
2018-08-19T12:47:17.136Z,16.03
2018-08-19T12:49:49.852Z,15.10
2018-08-19T12:52:20.904Z,16.40
2018-08-19T12:55:01.968Z,18.50
2018-08-19T12:57:31.221Z,19.80
2018-08-19T13:00:06.627Z,17.23
2018-08-19T13:02:42.246Z,17.57
2018-08-19T13:05:11.540Z,21.30
2018-08-19T13:07:40.894Z,15.97
2018-08-19T13:10:09.952Z,20.23
2018-08-19T13:12:58.313Z,18.93
2018-08-19T13:15:29.505Z,16.87
2018-08-19T13:17:58.741Z,21.87
2018-08-19T13:20:28.668Z,13.90
2018-08-19T13:23:03.992Z,14.40
2018-08-19T13:25:33.320Z,14.30
2018-08-19T13:28:02.398Z,14.63
2018-08-19T13:30:31.387Z,15.07
2018-08-19T13:33:00.668Z,25.20
2018-08-19T13:35:29.728Z,13.70
2018-08-19T13:37:58.673Z,16.63
2018-08-19T13:40:27.745Z,17.10
2018-08-19T13:42:56.816Z,15.70
2018-08-19T13:45:26.914Z,13.80
2018-08-19T13:47:55.888Z,13.57
2018-08-19T13:50:24.967Z,14.00
2018-08-19T13:52:53.988Z,15.73
2018-08-19T13:55:23.017Z,16.97
2018-08-19T13:57:52.073Z,16.80
2018-08-19T14:00:22.787Z,14.40
2018-08-19T14:02:52.121Z,15.10
2018-08-19T14:05:21.115Z,13.50
2018-08-19T14:07:50.120Z,14.13
2018-08-19T14:10:19.091Z,18.57
2018-08-19T14:12:48.121Z,17.40
2018-08-19T14:15:17.054Z,24.60
2018-08-19T14:17:46.120Z,15.00
2018-08-19T14:20:15.198Z,16.33
2018-08-19T14:22:44.170Z,15.37
2018-08-19T14:25:13.140Z,17.30
2018-08-19T14:27:42.175Z,15.73
2018-08-19T14:30:12.261Z,17.23
2018-08-19T14:32:43.541Z,17.97
2018-08-19T14:35:12.495Z,17.33
2018-08-19T14:37:41.668Z,14.57
2018-08-19T14:40:14.863Z,25.67
2018-08-19T14:42:44.016Z,12.90
2018-08-19T14:45:13.179Z,16.13
2018-08-19T14:47:42.232Z,20.10
2018-08-19T14:50:13.652Z,17.87
2018-08-19T14:52:42.698Z,17.20
2018-08-19T14:55:11.719Z,14.00
2018-08-19T14:57:40.720Z,15.30
2018-08-19T15:00:11.668Z,16.47
2018-08-19T15:02:40.988Z,13.27
2018-08-19T15:05:14.260Z,20.20
2018-08-19T15:07:43.293Z,14.63
2018-08-19T15:10:17.229Z,17.00
2018-08-19T15:12:46.296Z,19.80
2018-08-19T15:15:15.212Z,19.60
2018-08-19T15:17:51.410Z,15.17
2018-08-19T15:20:26.650Z,16.10
2018-08-19T15:23:16.624Z,14.70
2018-08-19T15:25:45.850Z,18.60
2018-08-19T15:28:15.103Z,14.00
2018-08-19T15:30:44.135Z,17.73
2018-08-19T15:33:15.571Z,14.50
2018-08-19T15:35:44.710Z,18.00
2018-08-19T15:38:13.754Z,16.23
2018-08-19T15:40:45.777Z,18.43
2018-08-19T15:43:15.116Z,15.13
2018-08-19T15:45:44.652Z,19.33
2018-08-19T15:48:13.650Z,15.73
2018-08-19T15:50:42.607Z,19.67
2018-08-19T15:53:11.636Z,13.20
2018-08-19T15:55:41.106Z,14.87
2018-08-19T15:58:10.179Z,14.43
2018-08-19T16:00:41.341Z,14.23
2018-08-19T16:03:11.298Z,14.43
2018-08-19T16:05:40.334Z,13.57
2018-08-19T16:08:09.441Z,12.87
2018-08-19T16:10:38.628Z,9.00
2018-08-19T16:13:09.327Z,10.50
2018-08-19T16:15:38.405Z,10.23
2018-08-19T16:18:08.040Z,14.40
2018-08-19T16:20:37.268Z,10.80
2018-08-19T16:23:06.444Z,16.00
2018-08-19T16:25:35.535Z,14.17
2018-08-19T16:28:05.585Z,13.50
2018-08-19T16:30:34.616Z,13.40
2018-08-19T16:33:04.294Z,10.10
2018-08-19T16:35:33.377Z,12.80
2018-08-19T16:38:02.608Z,10.23
2018-08-19T16:40:31.931Z,10.43
2018-08-19T16:43:00.938Z,12.60
2018-08-19T16:45:30.074Z,13.27
2018-08-19T16:47:59.141Z,9.17
2018-08-19T16:50:28.554Z,13.40
2018-08-19T16:52:57.480Z,11.90
2018-08-19T16:55:26.546Z,11.43
2018-08-19T16:57:55.518Z,15.60
2018-08-19T17:00:24.541Z,10.67
2018-08-19T17:02:53.677Z,12.10
2018-08-19T17:05:31.335Z,8.70
2018-08-19T17:08:00.389Z,13.43
2018-08-19T17:10:29.972Z,12.43
2018-08-19T17:12:59.097Z,16.30
2018-08-19T17:15:28.399Z,11.17
2018-08-19T17:17:57.512Z,15.90
2018-08-19T17:20:27.636Z,14.80
2018-08-19T17:22:56.572Z,12.27
2018-08-19T17:25:25.563Z,13.33
2018-08-19T17:27:54.483Z,11.83
2018-08-19T17:30:23.504Z,16.00
2018-08-19T17:32:57.143Z,12.97
2018-08-19T17:35:26.110Z,13.07
2018-08-19T17:37:55.147Z,12.93
2018-08-19T17:40:24.204Z,15.33
2018-08-19T17:42:53.355Z,13.23
2018-08-19T17:45:22.401Z,14.80
2018-08-19T17:47:51.436Z,11.10
2018-08-19T17:50:24.671Z,11.23
2018-08-19T17:52:54.780Z,14.67
2018-08-19T17:55:24.294Z,17.20
2018-08-19T17:57:53.608Z,16.80
2018-08-19T18:00:23.042Z,17.50
2018-08-19T18:02:52.416Z,16.10
2018-08-19T18:05:21.612Z,13.17
2018-08-19T18:07:53.878Z,14.80
2018-08-19T18:10:22.904Z,17.30
2018-08-19T18:12:52.245Z,14.27
2018-08-19T18:15:21.252Z,14.73
2018-08-19T18:17:58.423Z,18.50
2018-08-19T18:20:32.514Z,16.67
2018-08-19T18:23:01.516Z,15.87
2018-08-19T18:25:30.930Z,20.83
2018-08-19T18:28:04.752Z,16.10
2018-08-19T18:30:33.763Z,17.00
2018-08-19T18:33:04.187Z,17.27
2018-08-19T18:35:33.351Z,20.40
2018-08-19T18:38:02.360Z,23.53
2018-08-19T18:40:33.403Z,16.13
2018-08-19T18:43:02.835Z,18.27
2018-08-19T18:45:31.740Z,18.20
2018-08-19T18:48:01.797Z,21.90
2018-08-19T18:50:30.884Z,15.90
2018-08-19T18:52:59.905Z,17.73
2018-08-19T18:55:29.088Z,18.30
2018-08-19T18:57:58.035Z,17.93
2018-08-19T19:00:27.759Z,17.57
2018-08-19T19:03:01.190Z,17.90
2018-08-19T19:05:36.376Z,19.37
2018-08-19T19:08:11.332Z,19.20
2018-08-19T19:10:43.580Z,18.70
2018-08-19T19:13:12.603Z,20.73
2018-08-19T19:15:41.634Z,24.63
2018-08-19T19:18:12.077Z,20.00
2018-08-19T19:21:14.436Z,20.60
2018-08-19T19:23:44.225Z,26.93
2018-08-19T19:26:13.196Z,28.70
2018-08-19T19:28:42.223Z,26.80
2018-08-19T19:31:12.160Z,22.60
2018-08-19T19:33:41.112Z,24.70
2018-08-19T19:36:15.803Z,23.40
2018-08-19T19:39:02.089Z,24.57
2018-08-19T19:41:32.480Z,25.57
2018-08-19T19:44:20.024Z,24.87
2018-08-19T19:46:49.027Z,23.40
2018-08-19T19:49:17.977Z,26.57
2018-08-19T19:52:04.435Z,26.93
2018-08-19T19:54:34.280Z,26.83
2018-08-19T19:57:03.267Z,22.97
2018-08-19T19:59:33.714Z,22.93
2018-08-19T20:02:02.735Z,26.13
2018-08-19T20:04:34.652Z,21.47
2018-08-19T20:07:03.723Z,24.23
2018-08-19T20:09:34.971Z,32.27
2018-08-19T20:12:04.083Z,26.87
2018-08-19T20:14:37.372Z,24.20
2018-08-19T20:17:06.549Z,25.07
2018-08-19T20:19:35.560Z,26.03
2018-08-19T20:22:04.556Z,21.20
2018-08-19T20:24:33.588Z,21.87
2018-08-19T20:27:02.575Z,22.17
2018-08-19T20:29:31.864Z,33.23
2018-08-19T20:32:00.840Z,22.90
2018-08-19T20:34:29.850Z,26.87
2018-08-19T20:36:58.876Z,21.73
2018-08-19T20:39:27.921Z,22.13
2018-08-19T20:41:57.082Z,21.80
2018-08-19T20:44:26.056Z,20.20
2018-08-19T20:46:57.505Z,25.23
2018-08-19T20:49:27.416Z,27.53
2018-08-19T20:51:56.612Z,19.87
2018-08-19T20:54:25.596Z,23.20
2018-08-19T20:56:54.613Z,24.40
2018-08-19T20:59:29.012Z,22.00
2018-08-19T21:01:58.003Z,24.23
2018-08-19T21:04:27.028Z,26.73
2018-08-19T21:06:55.988Z,27.03
2018-08-19T21:09:25.015Z,29.63
2018-08-19T21:11:53.964Z,24.50
2018-08-19T21:14:23.013Z,22.40
2018-08-19T21:16:52.010Z,25.40
2018-08-19T21:19:21.343Z,19.80
2018-08-19T21:21:50.379Z,21.97
2018-08-19T21:24:19.348Z,25.43
2018-08-19T21:26:56.500Z,22.60
2018-08-19T21:29:25.535Z,25.57
2018-08-19T21:31:54.520Z,27.83
2018-08-19T21:34:23.620Z,24.57
2018-08-19T21:36:52.618Z,27.23
2018-08-19T21:39:21.619Z,21.77
2018-08-19T21:41:52.040Z,22.53
2018-08-19T21:44:20.980Z,20.57
2018-08-19T21:46:49.917Z,18.00
2018-08-19T21:49:18.820Z,27.47
2018-08-19T21:51:47.755Z,22.47
2018-08-19T21:54:17.575Z,21.73
2018-08-19T21:56:46.592Z,28.10
2018-08-19T21:59:22.576Z,24.53
2018-08-19T22:01:52.603Z,24.10
2018-08-19T22:04:22.900Z,23.80
2018-08-19T22:06:51.896Z,24.73
2018-08-19T22:09:36.779Z,20.53
2018-08-19T22:12:07.593Z,21.23
2018-08-19T22:14:36.523Z,31.30
2018-08-19T22:17:09.665Z,20.40
2018-08-19T22:19:39.103Z,28.47
2018-08-19T22:22:08.277Z,18.80
2018-08-19T22:24:37.411Z,24.53
2018-08-19T22:27:11.716Z,19.63
2018-08-19T22:29:40.653Z,32.20
2018-08-19T22:32:09.598Z,27.97
2018-08-19T22:34:38.580Z,29.80
2018-08-19T22:37:07.556Z,26.03
2018-08-19T22:39:36.477Z,22.90
2018-08-19T22:42:05.458Z,26.40
2018-08-19T22:44:34.439Z,27.47
2018-08-19T22:47:03.501Z,24.40
2018-08-19T22:49:32.441Z,25.57
2018-08-19T22:52:16.984Z,31.47
2018-08-19T22:54:45.950Z,28.37
2018-08-19T22:57:14.980Z,28.57
2018-08-19T22:59:43.923Z,27.63
2018-08-19T23:02:14.589Z,30.50
2018-08-19T23:04:43.896Z,25.50
2018-08-19T23:07:12.903Z,24.40
2018-08-19T23:09:41.935Z,22.53
2018-08-19T23:12:10.899Z,30.40
2018-08-19T23:14:51.343Z,28.80
2018-08-19T23:17:20.420Z,25.67
2018-08-19T23:19:49.985Z,32.50
2018-08-19T23:22:18.960Z,27.03
2018-08-19T23:24:48.140Z,30.03
2018-08-19T23:27:17.120Z,21.97
2018-08-19T23:29:46.173Z,24.27
2018-08-19T23:32:15.108Z,27.90
2018-08-19T23:34:44.104Z,29.00
2018-08-19T23:37:13.123Z,28.70
2018-08-19T23:39:42.075Z,25.10
2018-08-19T23:42:11.095Z,34.80
2018-08-19T23:44:40.090Z,22.33
2018-08-19T23:47:09.095Z,27.87
2018-08-19T23:49:38.077Z,29.07
2018-08-19T23:52:07.032Z,19.30
2018-08-19T23:54:35.975Z,30.13
2018-08-19T23:57:04.915Z,27.27
2018-08-19T23:59:35.355Z,32.90
